createdAt,value
2019-03-15T00:02:16.339Z,3.20
2019-03-15T00:04:49.772Z,3.83
2019-03-15T00:07:23.273Z,2.63
2019-03-15T00:09:56.629Z,3.07
2019-03-15T00:12:29.964Z,2.77
2019-03-15T00:15:04.347Z,2.57
2019-03-15T00:17:37.747Z,3.90
2019-03-15T00:20:11.256Z,2.80
2019-03-15T00:22:44.665Z,3.50
2019-03-15T00:25:18.151Z,3.40
2019-03-15T00:27:51.494Z,3.33
2019-03-15T00:30:24.930Z,3.00
2019-03-15T00:32:58.631Z,2.97
2019-03-15T00:35:32.123Z,2.97
2019-03-15T00:38:05.522Z,3.97
2019-03-15T00:40:38.969Z,2.77
2019-03-15T00:43:12.347Z,3.20
2019-03-15T00:45:45.763Z,3.83
2019-03-15T00:48:19.133Z,3.40
2019-03-15T00:50:52.471Z,3.47
2019-03-15T00:53:26.022Z,3.03
2019-03-15T00:55:59.362Z,3.70
2019-03-15T00:58:32.816Z,4.20
2019-03-15T01:01:06.294Z,3.40
2019-03-15T01:03:39.719Z,2.90
2019-03-15T01:06:13.093Z,3.50
2019-03-15T01:08:46.456Z,4.10
2019-03-15T01:11:19.803Z,3.50
2019-03-15T01:13:53.196Z,3.50
2019-03-15T01:16:26.535Z,3.13
2019-03-15T01:18:59.904Z,2.77
2019-03-15T01:21:33.384Z,3.80
2019-03-15T01:24:06.828Z,3.40
2019-03-15T01:26:40.224Z,3.30
2019-03-15T01:29:13.603Z,4.10
2019-03-15T01:31:46.957Z,3.80
2019-03-15T01:34:20.363Z,4.07
2019-03-15T01:36:53.716Z,3.87
2019-03-15T01:39:27.085Z,3.67
2019-03-15T01:42:00.486Z,3.50
2019-03-15T01:44:33.945Z,4.13
2019-03-15T01:47:07.289Z,4.00
2019-03-15T01:49:40.736Z,3.47
2019-03-15T01:52:14.140Z,3.93
2019-03-15T01:54:47.606Z,4.20
2019-03-15T01:57:21.007Z,3.63
2019-03-15T01:59:54.415Z,4.07
2019-03-15T02:02:27.904Z,3.40
2019-03-15T02:05:01.306Z,3.83
2019-03-15T02:07:34.817Z,3.17
2019-03-15T02:10:09.158Z,3.50
2019-03-15T02:12:42.614Z,3.93
2019-03-15T02:15:16.038Z,3.17
2019-03-15T02:17:49.412Z,2.63
2019-03-15T02:20:22.848Z,3.77
2019-03-15T02:22:56.191Z,4.00
2019-03-15T02:25:29.577Z,2.90
2019-03-15T02:28:02.939Z,3.03
2019-03-15T02:30:36.483Z,3.07
2019-03-15T02:33:09.884Z,3.17
2019-03-15T02:35:43.255Z,2.47
2019-03-15T02:38:16.594Z,2.50
2019-03-15T02:40:49.964Z,2.83
2019-03-15T02:43:23.296Z,2.50
2019-03-15T02:45:56.817Z,3.07
2019-03-15T02:48:30.152Z,3.37
2019-03-15T02:51:06.477Z,2.90
2019-03-15T02:53:39.787Z,3.07
2019-03-15T02:56:13.133Z,3.40
2019-03-15T02:58:46.465Z,4.07
2019-03-15T03:01:19.814Z,3.30
2019-03-15T03:03:53.217Z,4.10
2019-03-15T03:06:28.055Z,4.00
2019-03-15T03:09:01.770Z,4.17
2019-03-15T03:11:35.115Z,4.40
2019-03-15T03:14:08.522Z,4.20
2019-03-15T03:16:41.866Z,4.00
2019-03-15T03:19:15.181Z,4.53
2019-03-15T03:21:48.530Z,4.03
2019-03-15T03:24:22.211Z,4.07
2019-03-15T03:26:55.653Z,4.20
2019-03-15T03:29:29.039Z,4.23
2019-03-15T03:32:02.439Z,4.47
2019-03-15T03:34:35.866Z,4.17
2019-03-15T03:37:09.180Z,4.33
2019-03-15T03:39:42.502Z,4.23
2019-03-15T03:42:16.024Z,3.70
2019-03-15T03:44:49.450Z,3.70
2019-03-15T03:47:22.866Z,4.20
2019-03-15T03:49:56.180Z,3.53
2019-03-15T03:52:29.598Z,3.80
2019-03-15T03:55:03.023Z,3.27
2019-03-15T03:57:36.704Z,4.43
2019-03-15T04:00:14.882Z,4.13
2019-03-15T04:02:48.293Z,3.60
2019-03-15T04:05:21.635Z,4.13
2019-03-15T04:07:55.011Z,4.30
2019-03-15T04:10:28.425Z,3.80
2019-03-15T04:13:01.747Z,4.23
2019-03-15T04:15:35.173Z,4.27
2019-03-15T04:18:08.483Z,4.30
2019-03-15T04:20:42.481Z,3.50
2019-03-15T04:23:15.878Z,4.10
2019-03-15T04:25:49.222Z,4.00
2019-03-15T04:28:22.542Z,4.30
2019-03-15T04:30:55.895Z,4.23
2019-03-15T04:33:29.231Z,3.40
2019-03-15T04:36:02.579Z,3.73
2019-03-15T04:38:35.882Z,3.90
2019-03-15T04:41:09.240Z,3.37
2019-03-15T04:43:42.564Z,3.37
2019-03-15T04:46:15.904Z,4.33
2019-03-15T04:48:49.243Z,3.77
2019-03-15T04:51:22.650Z,4.40
2019-03-15T04:53:55.927Z,3.70
2019-03-15T04:56:29.287Z,3.53
2019-03-15T04:59:02.611Z,4.17
2019-03-15T05:01:36.122Z,3.23
2019-03-15T05:04:09.931Z,4.50
2019-03-15T05:06:43.280Z,3.60
2019-03-15T05:09:16.675Z,4.73
2019-03-15T05:11:50.031Z,3.63
2019-03-15T05:14:23.388Z,4.00
2019-03-15T05:16:56.817Z,3.77
2019-03-15T05:19:30.183Z,5.03
2019-03-15T05:22:03.577Z,4.40
2019-03-15T05:24:36.926Z,3.57
2019-03-15T05:27:10.370Z,3.13
2019-03-15T05:29:43.740Z,5.07
2019-03-15T05:32:17.078Z,4.33
2019-03-15T05:34:50.392Z,3.73
2019-03-15T05:37:23.780Z,5.37
2019-03-15T05:39:57.146Z,7.13
2019-03-15T05:42:30.519Z,6.60
2019-03-15T05:45:04.879Z,6.90
2019-03-15T05:47:38.291Z,6.57
2019-03-15T05:50:12.920Z,5.87
2019-03-15T05:52:46.277Z,7.20
2019-03-15T05:55:19.601Z,7.40
2019-03-15T05:57:52.944Z,6.97
2019-03-15T06:00:26.258Z,7.03
2019-03-15T06:02:59.631Z,6.20
2019-03-15T06:05:32.964Z,6.90
2019-03-15T06:08:06.348Z,7.13
2019-03-15T06:10:39.668Z,7.30
2019-03-15T06:13:13.049Z,6.37
2019-03-15T06:15:46.368Z,6.10
2019-03-15T06:18:19.708Z,6.30
2019-03-15T06:20:53.026Z,6.10
2019-03-15T06:23:26.367Z,6.47
2019-03-15T06:25:59.716Z,6.03
2019-03-15T06:28:33.202Z,5.70
2019-03-15T06:31:06.643Z,6.10
2019-03-15T06:33:39.986Z,6.03
2019-03-15T06:36:13.320Z,6.27
2019-03-15T06:38:46.741Z,6.90
2019-03-15T06:41:20.083Z,6.10
2019-03-15T06:43:53.514Z,5.83
2019-03-15T06:46:26.832Z,6.20
2019-03-15T06:49:00.187Z,6.67
2019-03-15T06:51:33.596Z,6.13
2019-03-15T06:54:11.713Z,6.20
2019-03-15T06:56:42.284Z,6.90
2019-03-15T06:59:15.674Z,6.77
2019-03-15T07:01:49.000Z,7.10
2019-03-15T07:04:23.987Z,6.73
2019-03-15T07:06:57.311Z,6.60
2019-03-15T07:09:31.071Z,6.70
2019-03-15T07:12:09.140Z,6.50
2019-03-15T07:14:39.517Z,7.43
2019-03-15T07:17:12.859Z,6.43
2019-03-15T07:19:46.189Z,6.60
2019-03-15T07:22:20.120Z,5.87
2019-03-15T07:24:53.593Z,4.70
2019-03-15T07:27:26.933Z,5.07
2019-03-15T07:30:00.552Z,5.07
2019-03-15T07:32:33.987Z,4.90
2019-03-15T07:35:07.672Z,4.47
2019-03-15T07:37:41.095Z,4.27
2019-03-15T07:40:14.416Z,4.60
2019-03-15T07:42:47.855Z,4.40
2019-03-15T07:45:21.168Z,4.43
2019-03-15T07:47:54.515Z,4.60
2019-03-15T07:50:27.828Z,5.20
2019-03-15T07:53:01.195Z,4.90
2019-03-15T07:55:34.534Z,5.03
2019-03-15T07:58:07.911Z,5.00
2019-03-15T08:00:41.232Z,4.83
2019-03-15T08:03:14.585Z,4.93
2019-03-15T08:05:47.972Z,5.37
2019-03-15T08:08:21.353Z,4.70
2019-03-15T08:10:55.187Z,5.80
2019-03-15T08:13:28.573Z,5.30
2019-03-15T08:16:01.964Z,5.00
2019-03-15T08:18:35.403Z,5.07
2019-03-15T08:21:08.788Z,5.77
2019-03-15T08:23:42.154Z,5.10
2019-03-15T08:26:15.476Z,5.83
2019-03-15T08:28:48.845Z,5.47
2019-03-15T08:31:23.457Z,6.83
2019-03-15T08:33:56.941Z,5.07
2019-03-15T08:36:30.321Z,6.10
2019-03-15T08:39:04.742Z,5.10
2019-03-15T08:41:38.094Z,5.20
2019-03-15T08:44:11.440Z,5.00
2019-03-15T08:46:44.764Z,4.83
2019-03-15T08:49:18.160Z,4.60
2019-03-15T08:52:03.294Z,5.40
2019-03-15T08:54:26.634Z,4.67
2019-03-15T08:56:59.975Z,5.00
2019-03-15T08:59:33.328Z,4.47
2019-03-15T09:02:06.651Z,5.13
2019-03-15T09:04:40.016Z,3.87
2019-03-15T09:07:13.335Z,2.83
2019-03-15T09:09:46.708Z,3.50
2019-03-15T09:12:20.024Z,2.20
2019-03-15T09:14:53.378Z,3.20
2019-03-15T09:17:26.695Z,2.97
2019-03-15T09:20:00.040Z,3.40
2019-03-15T09:22:33.360Z,3.80
2019-03-15T09:25:19.447Z,3.30
2019-03-15T09:27:46.465Z,4.37
2019-03-15T09:30:24.171Z,3.73
2019-03-15T09:32:54.877Z,4.50
2019-03-15T09:35:28.305Z,4.00
2019-03-15T09:38:01.663Z,4.17
2019-03-15T09:40:35.050Z,4.00
2019-03-15T09:43:08.337Z,4.30
2019-03-15T09:45:41.682Z,4.07
2019-03-15T09:48:15.002Z,3.63
2019-03-15T09:50:51.536Z,3.77
2019-03-15T09:53:23.392Z,3.50
2019-03-15T09:55:57.625Z,3.93
2019-03-15T09:58:30.943Z,3.73
2019-03-15T10:01:04.605Z,4.00
2019-03-15T10:03:38.390Z,3.83
2019-03-15T10:06:15.692Z,3.80
2019-03-15T10:08:46.852Z,3.40
2019-03-15T10:11:20.159Z,3.83
2019-03-15T10:13:53.512Z,3.67
2019-03-15T10:16:26.870Z,3.90
2019-03-15T10:19:00.217Z,4.10
2019-03-15T10:21:33.600Z,3.07
2019-03-15T10:24:06.958Z,3.00
2019-03-15T10:26:40.272Z,2.73
2019-03-15T10:29:15.716Z,2.67
2019-03-15T10:31:48.739Z,2.83
2019-03-15T10:34:22.223Z,4.00
2019-03-15T10:36:55.526Z,4.03
2019-03-15T10:39:28.878Z,3.67
2019-03-15T10:42:02.219Z,4.17
2019-03-15T10:44:35.641Z,4.03
2019-03-15T10:47:08.962Z,4.60
2019-03-15T10:49:42.507Z,3.37
2019-03-15T10:52:15.961Z,4.40
2019-03-15T10:54:49.539Z,4.80
2019-03-15T10:57:22.868Z,4.43
2019-03-15T10:59:56.227Z,4.77
2019-03-15T11:02:29.551Z,4.73
2019-03-15T11:05:02.918Z,5.67
2019-03-15T11:07:36.247Z,4.27
2019-03-15T11:10:11.121Z,4.43
2019-03-15T11:12:44.480Z,5.57
2019-03-15T11:15:17.907Z,5.90
2019-03-15T11:17:51.276Z,5.53
2019-03-15T11:20:24.690Z,6.23
2019-03-15T11:22:58.015Z,6.17
2019-03-15T11:25:31.385Z,6.40
2019-03-15T11:28:04.704Z,7.27
2019-03-15T11:30:38.054Z,5.63
2019-03-15T11:33:11.369Z,6.53
2019-03-15T11:35:44.727Z,5.20
2019-03-15T11:38:18.082Z,5.30
2019-03-15T11:40:51.418Z,6.27
2019-03-15T11:43:24.748Z,4.10
2019-03-15T11:45:58.101Z,5.30
2019-03-15T11:48:31.461Z,4.23
2019-03-15T11:51:04.814Z,4.67
2019-03-15T11:53:38.131Z,4.43
2019-03-15T11:56:11.638Z,3.80
2019-03-15T11:58:44.946Z,4.33
2019-03-15T12:01:18.313Z,3.40
2019-03-15T12:03:53.253Z,3.13
2019-03-15T12:06:27.066Z,3.97
2019-03-15T12:09:00.351Z,3.37
2019-03-15T12:11:33.804Z,3.37
2019-03-15T12:14:07.190Z,3.60
2019-03-15T12:16:40.594Z,3.10
2019-03-15T12:19:13.918Z,2.67
2019-03-15T12:21:47.294Z,2.43
2019-03-15T12:24:20.725Z,3.03
2019-03-15T12:26:54.330Z,2.93
2019-03-15T12:29:27.828Z,3.50
2019-03-15T12:32:01.171Z,3.80
2019-03-15T12:34:34.516Z,5.70
2019-03-15T12:37:07.949Z,6.33
2019-03-15T12:39:41.281Z,5.90
2019-03-15T12:42:14.695Z,5.13
2019-03-15T12:44:48.025Z,5.67
2019-03-15T12:47:21.382Z,5.10
2019-03-15T12:49:54.695Z,5.03
2019-03-15T12:52:28.176Z,5.17
2019-03-15T12:55:03.504Z,4.77
2019-03-15T12:57:37.404Z,3.67
2019-03-15T13:00:14.343Z,3.57
2019-03-15T13:02:48.046Z,4.20
2019-03-15T13:05:21.519Z,3.87
2019-03-15T13:07:54.841Z,4.27
2019-03-15T13:10:28.195Z,3.87
2019-03-15T13:13:01.754Z,3.83
2019-03-15T13:15:35.116Z,4.47
2019-03-15T13:18:08.427Z,4.77
2019-03-15T13:20:42.341Z,4.80
2019-03-15T13:23:15.653Z,3.80
2019-03-15T13:25:49.369Z,3.57
2019-03-15T13:28:22.838Z,3.37
2019-03-15T13:30:56.261Z,4.10
2019-03-15T13:33:29.583Z,4.07
2019-03-15T13:36:02.937Z,4.37
2019-03-15T13:38:36.293Z,5.43
2019-03-15T13:41:09.641Z,5.00
2019-03-15T13:43:42.966Z,5.67
2019-03-15T13:46:16.334Z,5.83
2019-03-15T13:48:49.643Z,8.87
2019-03-15T13:51:23.062Z,6.60
2019-03-15T13:53:56.452Z,5.80
2019-03-15T13:56:29.804Z,4.97
2019-03-15T13:59:03.205Z,6.20
2019-03-15T14:01:36.535Z,5.87
2019-03-15T14:04:10.001Z,7.40
2019-03-15T14:06:43.373Z,4.57
2019-03-15T14:09:16.698Z,4.73
2019-03-15T14:11:50.258Z,4.93
2019-03-15T14:14:23.588Z,3.73
2019-03-15T14:16:56.948Z,4.93
2019-03-15T14:19:30.262Z,3.97
2019-03-15T14:22:05.981Z,3.50
2019-03-15T14:24:38.654Z,3.53
2019-03-15T14:27:12.039Z,3.30
2019-03-15T14:29:45.345Z,3.10
2019-03-15T14:32:18.714Z,1.80
2019-03-15T14:34:52.103Z,1.43
2019-03-15T14:37:25.527Z,1.60
2019-03-15T14:39:58.893Z,1.40
2019-03-15T14:42:32.298Z,1.53
2019-03-15T14:45:08.809Z,2.07
2019-03-15T14:47:42.154Z,1.43
2019-03-15T14:50:15.565Z,1.60
2019-03-15T14:52:49.100Z,1.53
2019-03-15T14:55:22.409Z,1.83
2019-03-15T14:57:55.745Z,2.00
2019-03-15T15:00:29.340Z,2.33
2019-03-15T15:03:02.768Z,1.90
2019-03-15T15:05:36.182Z,2.00
2019-03-15T15:08:09.527Z,2.10
2019-03-15T15:10:42.879Z,2.30
2019-03-15T15:13:16.220Z,2.30
2019-03-15T15:15:49.568Z,2.00
2019-03-15T15:18:22.928Z,2.53
2019-03-15T15:20:56.242Z,2.60
2019-03-15T15:23:29.627Z,2.43
2019-03-15T15:26:02.958Z,2.20
2019-03-15T15:28:36.294Z,2.57
2019-03-15T15:31:09.622Z,2.10
2019-03-15T15:33:43.030Z,2.03
2019-03-15T15:36:16.413Z,2.50
2019-03-15T15:38:49.768Z,2.47
2019-03-15T15:41:23.097Z,2.37
2019-03-15T15:43:56.439Z,2.43
2019-03-15T15:46:29.754Z,2.53
2019-03-15T15:49:03.100Z,2.30
2019-03-15T15:51:36.449Z,2.20
2019-03-15T15:54:09.805Z,2.60
2019-03-15T15:56:43.129Z,2.00
2019-03-15T15:59:16.469Z,2.10
2019-03-15T16:01:49.790Z,2.33
2019-03-15T16:04:23.140Z,1.70
2019-03-15T16:06:56.452Z,1.60
2019-03-15T16:09:29.829Z,1.93
2019-03-15T16:12:03.144Z,1.93
2019-03-15T16:14:36.483Z,1.60
2019-03-15T16:17:09.829Z,1.87
2019-03-15T16:19:43.171Z,1.77
2019-03-15T16:22:16.486Z,2.10
2019-03-15T16:24:49.832Z,1.70
2019-03-15T16:27:23.245Z,2.43
2019-03-15T16:29:56.550Z,1.93
2019-03-15T16:32:29.909Z,1.80
2019-03-15T16:35:03.384Z,1.60
2019-03-15T16:37:36.735Z,2.00
2019-03-15T16:40:11.493Z,1.60
2019-03-15T16:42:44.914Z,2.00
2019-03-15T16:45:29.332Z,1.93
2019-03-15T16:48:02.682Z,2.23
2019-03-15T16:50:36.016Z,2.10
2019-03-15T16:53:09.357Z,1.70
2019-03-15T16:55:42.706Z,1.60
2019-03-15T16:58:16.055Z,1.80
2019-03-15T17:00:49.396Z,1.60
2019-03-15T17:03:22.898Z,1.70
2019-03-15T17:05:56.204Z,1.60
2019-03-15T17:08:29.582Z,1.67
2019-03-15T17:11:02.979Z,1.90
2019-03-15T17:13:36.327Z,2.60
2019-03-15T17:16:09.831Z,1.70
2019-03-15T17:18:43.154Z,1.73
2019-03-15T17:21:16.468Z,1.80
2019-03-15T17:23:49.891Z,2.23
2019-03-15T17:26:23.210Z,1.93
2019-03-15T17:28:58.918Z,1.63
2019-03-15T17:31:31.579Z,2.00
2019-03-15T17:34:05.003Z,2.13
2019-03-15T17:36:38.353Z,1.83
2019-03-15T17:39:11.694Z,1.60
2019-03-15T17:41:45.119Z,2.27
2019-03-15T17:44:18.423Z,2.33
2019-03-15T17:46:51.834Z,2.17
2019-03-15T17:49:25.199Z,2.23
2019-03-15T17:51:58.598Z,2.53
2019-03-15T17:54:31.942Z,2.47
2019-03-15T17:57:05.382Z,2.60
2019-03-15T17:59:38.713Z,2.23
2019-03-15T18:02:12.159Z,1.80
2019-03-15T18:04:45.594Z,2.20
2019-03-15T18:07:18.918Z,2.03
2019-03-15T18:09:52.255Z,2.87
2019-03-15T18:12:25.641Z,2.80
2019-03-15T18:14:58.987Z,2.77
2019-03-15T18:17:32.299Z,3.37
2019-03-15T18:20:08.258Z,3.00
2019-03-15T18:22:41.595Z,2.83
2019-03-15T18:25:15.025Z,3.37
2019-03-15T18:27:48.705Z,3.40
2019-03-15T18:30:22.045Z,3.03
2019-03-15T18:32:55.369Z,2.53
2019-03-15T18:35:34.017Z,2.97
2019-03-15T18:38:03.779Z,3.27
2019-03-15T18:40:38.872Z,3.03
2019-03-15T18:43:12.236Z,2.93
2019-03-15T18:45:45.620Z,3.00
2019-03-15T18:48:19.021Z,2.63
2019-03-15T18:50:52.445Z,3.13
2019-03-15T18:53:25.764Z,1.90
2019-03-15T18:55:59.116Z,2.13
2019-03-15T18:58:32.433Z,3.20
2019-03-15T19:01:05.853Z,3.20
2019-03-15T19:03:39.242Z,2.90
2019-03-15T19:06:12.595Z,3.03
2019-03-15T19:08:45.910Z,3.07
2019-03-15T19:11:19.271Z,3.03
2019-03-15T19:13:52.696Z,3.37
2019-03-15T19:16:26.025Z,2.80
2019-03-15T19:18:59.519Z,3.10
2019-03-15T19:21:32.835Z,3.80
2019-03-15T19:24:06.185Z,3.47
2019-03-15T19:26:39.589Z,3.20
2019-03-15T19:29:12.923Z,3.63
2019-03-15T19:31:46.249Z,3.40
2019-03-15T19:34:19.587Z,2.87
2019-03-15T19:36:52.905Z,3.87
2019-03-15T19:39:26.285Z,3.27
2019-03-15T19:41:59.601Z,2.90
2019-03-15T19:44:32.973Z,4.07
2019-03-15T19:47:06.417Z,3.80
2019-03-15T19:49:39.775Z,3.33
2019-03-15T19:52:13.111Z,3.40
2019-03-15T19:54:59.514Z,3.97
2019-03-15T19:57:21.629Z,4.77
2019-03-15T20:00:06.968Z,3.90
2019-03-15T20:02:30.124Z,3.73
2019-03-15T20:05:04.167Z,3.50
2019-03-15T20:07:38.134Z,3.60
2019-03-15T20:10:16.111Z,3.27
2019-03-15T20:12:48.242Z,3.40
2019-03-15T20:15:21.627Z,3.17
2019-03-15T20:17:54.945Z,3.40
2019-03-15T20:20:28.367Z,3.40
2019-03-15T20:23:01.717Z,3.70
2019-03-15T20:25:35.133Z,4.17
2019-03-15T20:28:08.513Z,3.73
2019-03-15T20:30:51.318Z,3.53
2019-03-15T20:33:16.894Z,4.33
2019-03-15T20:35:52.039Z,4.33
2019-03-15T20:38:25.298Z,3.87
2019-03-15T20:40:58.799Z,3.77
2019-03-15T20:43:32.180Z,4.20
2019-03-15T20:46:05.559Z,3.27
2019-03-15T20:48:38.886Z,3.57
2019-03-15T20:51:12.358Z,4.60
2019-03-15T20:53:45.668Z,4.10
2019-03-15T20:56:19.038Z,3.60
2019-03-15T20:58:52.380Z,3.37
2019-03-15T21:01:25.799Z,4.20
2019-03-15T21:03:59.115Z,4.00
2019-03-15T21:06:32.536Z,3.70
2019-03-15T21:09:07.391Z,3.50
2019-03-15T21:11:40.753Z,4.33
2019-03-15T21:14:14.073Z,4.43
2019-03-15T21:16:47.418Z,3.97
2019-03-15T21:19:20.745Z,4.93
2019-03-15T21:21:56.331Z,3.93
2019-03-15T21:24:29.185Z,4.10
2019-03-15T21:27:02.609Z,3.77
2019-03-15T21:29:35.939Z,3.97
2019-03-15T21:32:09.407Z,4.13
2019-03-15T21:34:42.888Z,3.70
2019-03-15T21:37:16.245Z,4.10
2019-03-15T21:39:49.736Z,4.03
2019-03-15T21:42:23.052Z,4.63
2019-03-15T21:44:56.424Z,3.80
2019-03-15T21:47:29.737Z,4.40
2019-03-15T21:50:03.982Z,3.93
2019-03-15T21:52:37.289Z,4.10
2019-03-15T21:55:10.736Z,3.97
2019-03-15T21:57:44.041Z,4.23
2019-03-15T22:00:18.432Z,4.50
2019-03-15T22:02:51.755Z,4.30
2019-03-15T22:05:25.109Z,4.87
2019-03-15T22:07:58.464Z,4.33
2019-03-15T22:10:31.812Z,4.33
2019-03-15T22:13:05.165Z,4.67
2019-03-15T22:15:38.583Z,4.73
2019-03-15T22:18:11.954Z,4.00
2019-03-15T22:20:45.302Z,4.37
2019-03-15T22:23:18.633Z,4.17
2019-03-15T22:25:52.068Z,3.93
2019-03-15T22:28:25.383Z,4.13
2019-03-15T22:30:58.818Z,4.33
2019-03-15T22:33:32.134Z,4.70
2019-03-15T22:36:05.678Z,4.80
2019-03-15T22:38:38.988Z,4.50
2019-03-15T22:41:12.401Z,4.53
2019-03-15T22:43:45.720Z,4.23
2019-03-15T22:46:19.059Z,4.43
2019-03-15T22:48:52.397Z,4.63
2019-03-15T22:51:25.741Z,4.33
2019-03-15T22:53:59.170Z,4.50
2019-03-15T22:56:32.512Z,4.70
2019-03-15T22:59:05.824Z,4.60
2019-03-15T23:01:39.254Z,4.40
2019-03-15T23:04:12.580Z,3.83
2019-03-15T23:06:45.994Z,4.23
2019-03-15T23:09:19.331Z,4.23
2019-03-15T23:11:52.685Z,4.13
2019-03-15T23:14:25.999Z,3.47
2019-03-15T23:16:59.342Z,4.60
2019-03-15T23:19:32.719Z,4.17
2019-03-15T23:22:06.112Z,3.87
2019-03-15T23:24:39.797Z,4.03
2019-03-15T23:27:13.138Z,4.27
2019-03-15T23:29:46.749Z,3.83
2019-03-15T23:32:20.177Z,3.67
2019-03-15T23:34:54.052Z,4.77
2019-03-15T23:37:27.406Z,4.03
2019-03-15T23:40:00.721Z,3.93
2019-03-15T23:42:34.429Z,4.10
2019-03-15T23:45:09.680Z,4.10
2019-03-15T23:47:43.092Z,5.10
2019-03-15T23:50:16.471Z,4.77
2019-03-15T23:52:50.076Z,4.43
2019-03-15T23:55:23.775Z,4.23
2019-03-15T23:57:57.501Z,4.90
